Portada
METAR-TAF:

METAR-TAF

Aeropuertos :

Champaign / Urbana, Illinois, Estados Unidos

latitud: 40-01-56N, longitud: 088-16-24W, altitud: 229 m

Observación

El informe se hizo hace 59 minutos, a las 16:53 UTC
Viento 4 kt con dirección variable
Temperatura 28°C
Humedad 55%
Presión 1018 hPa
Visibilidad: 16.1 km
Cielo despejado

METAR: KCMI 061653Z VRB04KT 10SM CLR 28/18 A3006 RMK AO2 SLP171 T02830183

Hora: 12:52 (17:52 UTC)

Pronóstico

El informe se hizo hace 32 minutos, a las 17:20 UTC
Pronóstico válido del 06 a las 18 UTC al 07 a las 18 UTC
Viento 8 kt del noreste
Visibilidad: 10 km
Nubes dispersas a una altura de 25000 ft
A partir de las 07 a las 0200 UTC
Viento 9 kt del noreste
Visibilidad: 10 km
Cielo despejado
A partir de las 07 a las 1400 UTC
Viento 7 kt del este-sureste
Visibilidad: 10 km
Nubes dispersas a una altura de 25000 ft

TAF: KCMI 061720Z 0618/0718 05008KT P6SM SCT250 FM070200 05009KT P6SM SKC FM071400 11007KT P6SM SCT250

Observaciones y pronósticos meteorológicos de más de 4000 aeropuertos (mensajes METAR y TAF).

Los puntos amarillos y rojos representan las estaciones disponibles.

Ponga el ratón en el punto deseado para ver el nombre de la estación.

Haga clic para ver las observaciones y los pronósticos meteorológicos.

Para cambiar el mapa : haga clic en los botones verdes con una cruz de color negro para hacer un zoom, en el botón verde con un guión para alejar o en las flechas verdes para mapas adyacentes.


METAR-TAF: